Accueil
METAR-TAF:

METAR-TAF

Aéroports :

McEntire Joint National Guard Base

Eastover, Caroline du Sud, États-Unis

latitude: 33-55N, longitude: 080-48W, altitude: 77 m

Observation

Le bulletin a été fait il y a 40 minutes, à 21:56 UTC
Vent calme
Température 15°C
Humidité 44%
Pression 1021 hPa
Visibilité: 16.1 km
Quelques nuages à une hauteur de 25000 ft

METAR: KMMT 202156Z 00000KT 10SM FEW250 15/03 A3016 RMK AO2A SLP217 CONTRAILS T01490034 $

Heure: 17:36 (22:36 UTC)

Prévision

Le bulletin a été fait il y a 6 heures et 21 minutes, à 16:15 UTC
Prévision valable du 20 à 16 UTC au 21 à 22 UTC
Vent 6 kt de direction variable
Visibilité: 2022 m
Ciel clair
Evoluant progressivement
du 21 à 13 UTC au 21 à 14 UTC
Vent 8 kt de est
Visibilité 10 km ou plus
Quelques nuages à une hauteur de 14000 ft

TAF: KMMT 201615Z 2016/2122 35008KT 9999 SKC QNH3012INS WND VRB06KT AFT 2022 BECMG 2113/2114 08008KT 9999 FEW140 QNH3023INS TX16/2020Z TN06/2111Z

Observations et prévisions météorologiques de plus de 4000 aéroports (messages METAR et TAF).

Les stations disponibles sont représentées par des disques jaunes et rouges sur la carte.

Passer la souris dessus pour voir le nom de la station.

Cliquer dessus pour voir les observations et prévisions météorologiques.

Pour changer de carte: cliquez sur les boutons verts avec une croix noire pour zoomer, sur le bouton vert avec un tiret pour effectuer un zoom arrière, ou sur les flèches vertes pour les cartes adjacentes.


METAR-TAF: